createdAt,value
2022-12-06T00:00:56.738Z,12.50
2022-12-06T00:03:46.781Z,12.47
2022-12-06T00:06:37.788Z,11.53
2022-12-06T00:09:26.039Z,12.07
2022-12-06T00:12:12.639Z,11.73
2022-12-06T00:14:59.036Z,12.47
2022-12-06T00:17:45.463Z,11.17
2022-12-06T00:20:33.120Z,11.80
2022-12-06T00:23:19.468Z,12.00
2022-12-06T00:26:06.136Z,11.17
2022-12-06T00:28:54.724Z,11.33
2022-12-06T00:31:41.197Z,10.73
2022-12-06T00:34:28.257Z,11.37
2022-12-06T00:37:16.138Z,11.93
2022-12-06T00:40:02.798Z,11.20
2022-12-06T00:42:49.480Z,11.67
2022-12-06T00:45:35.640Z,12.67
2022-12-06T00:48:22.339Z,11.20
2022-12-06T00:51:09.060Z,12.37
2022-12-06T00:53:57.072Z,11.20
2022-12-06T00:56:43.421Z,11.03
2022-12-06T00:59:29.879Z,10.57
2022-12-06T01:02:16.201Z,10.70
2022-12-06T01:05:02.620Z,11.33
2022-12-06T01:07:49.236Z,10.33
2022-12-06T01:10:37.147Z,9.90
2022-12-06T01:13:23.548Z,12.10
2022-12-06T01:16:11.803Z,11.33
2022-12-06T01:18:59.444Z,9.90
2022-12-06T01:21:45.655Z,10.70
2022-12-06T01:24:32.350Z,10.43
2022-12-06T01:27:20.024Z,10.73
2022-12-06T01:30:07.751Z,10.00
2022-12-06T01:32:54.313Z,10.97
2022-12-06T01:35:41.704Z,9.77
2022-12-06T01:38:27.911Z,10.27
2022-12-06T01:41:14.572Z,11.57
2022-12-06T01:44:02.443Z,11.70
2022-12-06T01:46:48.767Z,10.50
2022-12-06T01:49:36.647Z,10.27
2022-12-06T01:52:27.538Z,10.60
2022-12-06T01:55:15.423Z,10.70
2022-12-06T01:58:08.001Z,11.77
2022-12-06T02:00:55.870Z,10.40
2022-12-06T02:03:43.259Z,10.43
2022-12-06T02:06:30.886Z,9.27
2022-12-06T02:09:18.316Z,10.53
2022-12-06T02:12:07.409Z,11.07
2022-12-06T02:14:56.675Z,11.97
2022-12-06T02:17:49.086Z,10.23
2022-12-06T02:20:39.747Z,9.47
2022-12-06T02:23:56.620Z,9.53
2022-12-06T02:26:46.422Z,9.97
2022-12-06T02:30:07.960Z,9.70
2022-12-06T02:33:00.189Z,9.40
2022-12-06T02:35:50.531Z,9.10
2022-12-06T02:38:42.018Z,9.60
2022-12-06T02:41:34.898Z,9.50
2022-12-06T02:44:27.107Z,9.87
2022-12-06T02:47:16.334Z,8.87
2022-12-06T02:50:08.247Z,9.90
2022-12-06T02:52:57.446Z,10.23
2022-12-06T02:55:44.587Z,10.07
2022-12-06T02:58:35.754Z,10.50
2022-12-06T03:01:25.597Z,10.13
2022-12-06T03:04:33.723Z,10.00
2022-12-06T03:07:37.879Z,9.67
2022-12-06T03:10:36.402Z,9.40
2022-12-06T03:13:31.596Z,9.33
2022-12-06T03:16:25.414Z,10.00
2022-12-06T03:19:17.157Z,9.77
2022-12-06T03:22:07.607Z,9.80
2022-12-06T03:24:56.355Z,9.80
2022-12-06T03:27:44.645Z,10.33
2022-12-06T03:30:32.347Z,9.87
2022-12-06T03:33:22.854Z,9.97
2022-12-06T03:36:11.629Z,9.70
2022-12-06T03:39:01.381Z,9.40
2022-12-06T03:41:54.102Z,9.67
2022-12-06T03:44:40.586Z,9.43
2022-12-06T03:47:32.445Z,9.43
2022-12-06T03:50:23.826Z,10.20
2022-12-06T03:53:10.860Z,9.67
2022-12-06T03:55:57.153Z,8.73
2022-12-06T03:58:45.630Z,9.83
2022-12-06T04:01:32.277Z,11.70
2022-12-06T04:04:18.483Z,16.60
2022-12-06T04:07:05.332Z,10.60
2022-12-06T04:09:56.433Z,10.33
2022-12-06T04:13:00.517Z,10.30
2022-12-06T04:15:48.531Z,10.03
2022-12-06T04:18:33.771Z,9.70
2022-12-06T04:21:43.652Z,10.90
2022-12-06T04:24:30.274Z,8.77
2022-12-06T04:27:34.038Z,10.83
2022-12-06T04:30:38.272Z,10.60
2022-12-06T04:33:43.562Z,9.97
2022-12-06T04:36:47.523Z,9.93
2022-12-06T04:39:34.495Z,9.73
2022-12-06T04:42:38.806Z,10.17
2022-12-06T04:45:25.332Z,9.93
2022-12-06T04:48:12.057Z,9.87
2022-12-06T04:50:59.728Z,9.33
2022-12-06T04:53:46.114Z,10.27
2022-12-06T04:56:32.508Z,10.83
2022-12-06T04:59:19.030Z,9.87
2022-12-06T05:02:05.678Z,11.20
2022-12-06T05:04:52.031Z,9.97
2022-12-06T05:07:39.977Z,9.70
2022-12-06T05:10:26.374Z,9.63
2022-12-06T05:13:12.991Z,10.20
2022-12-06T05:16:03.245Z,9.40
2022-12-06T05:18:49.582Z,9.80
2022-12-06T05:21:35.736Z,9.83
2022-12-06T05:24:23.530Z,9.40
2022-12-06T05:27:09.875Z,9.87
2022-12-06T05:29:56.374Z,9.83
2022-12-06T05:32:43.269Z,9.37
2022-12-06T05:35:29.740Z,9.10
2022-12-06T05:38:16.291Z,9.70
2022-12-06T05:41:05.136Z,9.10
2022-12-06T05:43:51.896Z,9.60
2022-12-06T05:46:38.187Z,9.27
2022-12-06T05:49:24.404Z,11.07
2022-12-06T05:52:10.748Z,13.10
2022-12-06T05:54:57.989Z,18.17
2022-12-06T05:57:47.494Z,20.80
2022-12-06T06:00:34.167Z,20.57
2022-12-06T06:03:20.391Z,14.87
2022-12-06T06:06:07.196Z,22.40
2022-12-06T06:08:54.948Z,18.93
2022-12-06T06:11:41.281Z,15.60
2022-12-06T06:14:29.159Z,17.03
2022-12-06T06:17:15.576Z,14.60
2022-12-06T06:20:05.463Z,14.07
2022-12-06T06:22:52.188Z,11.00
2022-12-06T06:25:40.780Z,11.23
2022-12-06T06:28:27.249Z,9.33
2022-12-06T06:31:15.701Z,10.40
2022-12-06T06:34:01.914Z,10.63
2022-12-06T06:36:48.667Z,9.80
2022-12-06T06:39:34.935Z,10.97
2022-12-06T06:42:21.390Z,29.47
2022-12-06T06:45:08.780Z,15.93
2022-12-06T06:47:56.816Z,17.13
2022-12-06T06:50:43.649Z,10.70
2022-12-06T06:53:31.244Z,10.13
2022-12-06T06:56:17.979Z,9.77
2022-12-06T06:59:04.117Z,13.37
2022-12-06T07:01:50.833Z,13.80
2022-12-06T07:04:38.568Z,10.53
2022-12-06T07:07:24.999Z,11.30
2022-12-06T07:10:12.392Z,19.13
2022-12-06T07:12:59.160Z,13.17
2022-12-06T07:15:46.104Z,11.67
2022-12-06T07:18:32.678Z,9.43
2022-12-06T07:21:23.251Z,10.77
2022-12-06T07:24:09.956Z,9.17
2022-12-06T07:26:57.311Z,9.77
2022-12-06T07:29:43.609Z,10.47
2022-12-06T07:32:29.989Z,10.63
2022-12-06T07:35:16.494Z,9.93
2022-12-06T07:38:03.994Z,9.27
2022-12-06T07:41:05.166Z,10.83
2022-12-06T07:44:09.254Z,8.67
2022-12-06T07:46:56.803Z,9.23
2022-12-06T07:49:43.180Z,9.60
2022-12-06T07:52:32.386Z,10.07
2022-12-06T07:55:20.351Z,9.17
2022-12-06T07:58:06.855Z,9.20
2022-12-06T08:00:53.296Z,10.10
2022-12-06T08:03:39.453Z,9.73
2022-12-06T08:06:26.004Z,9.80
2022-12-06T08:09:12.382Z,8.57
2022-12-06T08:12:00.671Z,10.67
2022-12-06T08:14:47.008Z,13.80
2022-12-06T08:17:33.413Z,7.53
2022-12-06T08:20:19.607Z,9.93
2022-12-06T08:23:05.919Z,9.27
2022-12-06T08:25:58.339Z,8.77
2022-12-06T08:28:46.069Z,9.20
2022-12-06T08:31:34.606Z,8.70
2022-12-06T08:34:21.334Z,9.50
2022-12-06T08:37:07.834Z,12.43
2022-12-06T08:39:54.222Z,11.60
2022-12-06T08:42:42.028Z,13.40
2022-12-06T08:45:29.868Z,10.03
2022-12-06T08:48:16.043Z,10.63
2022-12-06T08:51:03.555Z,10.00
2022-12-06T08:53:49.821Z,10.60
2022-12-06T08:56:37.834Z,18.17
2022-12-06T08:59:24.776Z,15.77
2022-12-06T09:02:13.269Z,9.67
2022-12-06T09:04:59.740Z,8.23
2022-12-06T09:07:46.596Z,7.63
2022-12-06T09:10:32.784Z,7.10
2022-12-06T09:13:19.117Z,8.17
2022-12-06T09:16:07.948Z,6.97
2022-12-06T09:18:55.504Z,7.83
2022-12-06T09:21:43.885Z,7.37
2022-12-06T09:24:30.295Z,7.67
2022-12-06T09:27:17.396Z,7.43
2022-12-06T09:30:03.815Z,6.20
2022-12-06T09:32:50.198Z,6.87
2022-12-06T09:35:38.549Z,6.70
2022-12-06T09:38:28.807Z,6.40
2022-12-06T09:41:32.438Z,7.23
2022-12-06T09:44:35.070Z,6.70
2022-12-06T09:47:35.781Z,6.97
2022-12-06T09:50:33.494Z,7.30
2022-12-06T09:53:30.835Z,7.13
2022-12-06T09:56:24.854Z,7.00
2022-12-06T09:59:19.768Z,7.00
2022-12-06T10:02:25.343Z,9.70
2022-12-06T10:05:36.906Z,7.63
2022-12-06T10:08:40.636Z,7.47
2022-12-06T10:11:39.701Z,6.57
2022-12-06T10:14:42.896Z,7.10
2022-12-06T10:17:43.362Z,7.73
2022-12-06T10:20:38.347Z,7.23
2022-12-06T10:23:40.700Z,7.13
2022-12-06T10:26:33.857Z,7.60
2022-12-06T10:29:29.065Z,7.00
2022-12-06T10:32:19.411Z,7.30
2022-12-06T10:35:17.477Z,7.37
2022-12-06T10:38:12.969Z,7.07
2022-12-06T10:41:10.614Z,7.27
2022-12-06T10:44:02.208Z,7.23
2022-12-06T10:47:04.721Z,6.73
2022-12-06T10:49:56.685Z,6.90
2022-12-06T10:52:47.129Z,6.77
2022-12-06T10:55:38.039Z,6.83
2022-12-06T10:58:32.607Z,23.17
2022-12-06T11:01:22.243Z,8.33
2022-12-06T11:04:13.204Z,6.27
2022-12-06T11:07:05.277Z,7.17
2022-12-06T11:09:53.495Z,6.80
2022-12-06T11:12:40.460Z,6.60
2022-12-06T11:15:33.516Z,6.67
2022-12-06T11:18:19.956Z,6.83
2022-12-06T11:21:19.032Z,7.20
2022-12-06T11:24:15.841Z,6.90
2022-12-06T11:27:08.265Z,7.07
2022-12-06T11:29:54.831Z,6.67
2022-12-06T11:32:43.558Z,7.10
2022-12-06T11:35:30.308Z,5.83
2022-12-06T11:38:18.163Z,6.77
2022-12-06T11:41:08.932Z,6.87
2022-12-06T11:43:56.986Z,6.53
2022-12-06T11:46:43.467Z,6.60
2022-12-06T11:49:36.200Z,6.23
2022-12-06T11:52:29.023Z,6.93
2022-12-06T11:55:19.384Z,6.70
2022-12-06T11:58:13.993Z,6.80
2022-12-06T12:01:04.155Z,6.23
2022-12-06T12:03:50.515Z,6.40
2022-12-06T12:06:38.055Z,6.73
2022-12-06T12:09:25.951Z,7.23
2022-12-06T12:12:16.764Z,7.03
2022-12-06T12:15:03.807Z,6.13
2022-12-06T12:17:53.823Z,6.23
2022-12-06T12:20:45.659Z,6.33
2022-12-06T12:23:37.124Z,6.27
2022-12-06T12:26:24.703Z,6.00
2022-12-06T12:29:17.710Z,6.27
2022-12-06T12:32:11.858Z,6.80
2022-12-06T12:34:58.545Z,5.80
2022-12-06T12:37:45.297Z,5.57
2022-12-06T12:40:38.199Z,5.43
2022-12-06T12:43:27.767Z,5.67
2022-12-06T12:46:18.588Z,5.57
2022-12-06T12:49:23.071Z,5.77
2022-12-06T12:52:29.285Z,7.03
2022-12-06T12:55:18.607Z,5.93
2022-12-06T12:58:11.695Z,5.87
2022-12-06T13:01:02.811Z,5.43
2022-12-06T13:03:52.224Z,5.20
2022-12-06T13:06:46.867Z,5.33
2022-12-06T13:09:43.985Z,5.67
2022-12-06T13:12:35.596Z,5.60
2022-12-06T13:15:29.928Z,5.63
2022-12-06T13:18:22.258Z,5.80
2022-12-06T13:21:17.971Z,6.37
2022-12-06T13:24:14.654Z,6.13
2022-12-06T13:27:03.935Z,5.10
2022-12-06T13:29:55.950Z,4.70
2022-12-06T13:32:46.319Z,5.47
2022-12-06T13:35:36.620Z,4.87
2022-12-06T13:38:29.923Z,5.30
2022-12-06T13:41:38.316Z,5.17
2022-12-06T13:44:40.819Z,5.60
2022-12-06T13:47:40.076Z,5.33
2022-12-06T13:50:56.408Z,5.37
2022-12-06T13:54:18.993Z,4.90
2022-12-06T13:57:24.625Z,4.63
2022-12-06T14:00:41.049Z,5.80
2022-12-06T14:03:40.814Z,4.83
2022-12-06T14:09:21.295Z,4.80
2022-12-06T14:12:09.945Z,5.73
2022-12-06T14:14:57.877Z,6.63
2022-12-06T14:18:05.537Z,7.20
2022-12-06T14:20:55.918Z,5.30
2022-12-06T14:23:48.052Z,6.27
2022-12-06T14:26:36.336Z,5.50
2022-12-06T14:29:24.793Z,4.93
2022-12-06T14:32:11.652Z,5.23
2022-12-06T14:35:03.648Z,4.80
2022-12-06T14:37:52.409Z,4.43
2022-12-06T14:40:54.649Z,4.93
2022-12-06T14:43:47.255Z,4.70
2022-12-06T14:46:34.065Z,4.90
2022-12-06T14:49:39.514Z,4.77
2022-12-06T14:52:28.529Z,4.77
2022-12-06T14:55:19.158Z,5.50
2022-12-06T14:58:16.132Z,10.07
2022-12-06T15:01:06.805Z,6.40
2022-12-06T15:04:01.204Z,5.30
2022-12-06T15:06:53.968Z,5.10
2022-12-06T15:09:45.603Z,5.30
2022-12-06T15:12:52.281Z,4.50
2022-12-06T15:15:40.811Z,5.47
2022-12-06T15:18:33.068Z,5.07
2022-12-06T15:21:19.487Z,5.20
2022-12-06T15:24:15.618Z,5.53
2022-12-06T15:27:02.691Z,5.83
2022-12-06T15:29:49.289Z,6.03
2022-12-06T15:32:35.607Z,5.70
2022-12-06T15:35:23.587Z,5.47
2022-12-06T15:38:10.195Z,6.13
2022-12-06T15:40:56.908Z,5.90
2022-12-06T15:43:43.087Z,5.67
2022-12-06T15:46:32.676Z,6.43
2022-12-06T15:49:21.628Z,6.67
2022-12-06T15:52:15.233Z,7.47
2022-12-06T15:55:02.207Z,6.13
2022-12-06T15:57:48.791Z,6.37
2022-12-06T16:00:35.222Z,6.77
2022-12-06T16:03:21.612Z,6.17
2022-12-06T16:06:13.289Z,5.60
2022-12-06T16:09:01.178Z,5.10
2022-12-06T16:11:48.105Z,5.80
2022-12-06T16:14:34.985Z,5.80
2022-12-06T16:17:21.536Z,5.83
2022-12-06T16:20:27.745Z,6.90
2022-12-06T16:23:56.684Z,6.40
2022-12-06T16:26:44.325Z,7.40
2022-12-06T16:29:31.279Z,6.57
2022-12-06T16:32:17.766Z,6.53
2022-12-06T16:35:04.405Z,6.73
2022-12-06T16:37:51.188Z,7.40
2022-12-06T16:40:37.608Z,8.90
2022-12-06T16:43:25.103Z,8.07
2022-12-06T16:46:25.062Z,27.73
2022-12-06T16:49:44.596Z,8.40
2022-12-06T16:52:24.566Z,9.27
2022-12-06T16:55:11.060Z,12.07
2022-12-06T16:57:57.327Z,10.37
2022-12-06T17:00:45.492Z,7.97
2022-12-06T17:03:33.312Z,7.90
2022-12-06T17:06:19.582Z,8.20
2022-12-06T17:09:06.644Z,8.17
2022-12-06T17:12:06.856Z,21.63
2022-12-06T17:14:53.824Z,13.67
2022-12-06T17:17:41.927Z,10.03
2022-12-06T17:20:28.653Z,7.90
2022-12-06T17:23:15.458Z,10.03
2022-12-06T17:26:01.917Z,8.23
2022-12-06T17:28:48.682Z,8.77
2022-12-06T17:31:36.712Z,7.50
2022-12-06T17:34:25.773Z,7.43
2022-12-06T17:37:12.607Z,7.13
2022-12-06T17:39:58.940Z,7.30
2022-12-06T17:43:00.594Z,8.00
2022-12-06T17:45:46.993Z,7.20
2022-12-06T17:48:36.880Z,7.70
2022-12-06T17:51:28.636Z,13.50
2022-12-06T17:54:15.525Z,16.17
2022-12-06T17:57:02.084Z,6.80
2022-12-06T17:59:49.374Z,13.80
2022-12-06T18:02:36.036Z,8.50
2022-12-06T18:05:22.730Z,7.77
2022-12-06T18:08:10.540Z,8.07
2022-12-06T18:10:58.315Z,7.30
2022-12-06T18:13:45.649Z,7.23
2022-12-06T18:16:34.209Z,8.40
2022-12-06T18:19:21.977Z,7.77
2022-12-06T18:22:08.969Z,7.43
2022-12-06T18:24:56.463Z,7.73
2022-12-06T18:27:42.812Z,7.90
2022-12-06T18:30:29.417Z,8.07
2022-12-06T18:33:19.287Z,10.87
2022-12-06T18:36:08.702Z,8.00
2022-12-06T18:38:59.023Z,8.07
2022-12-06T18:41:47.101Z,10.80
2022-12-06T18:44:33.904Z,8.40
2022-12-06T18:47:20.136Z,8.93
2022-12-06T18:50:10.165Z,11.20
2022-12-06T18:52:56.677Z,30.80
2022-12-06T18:55:43.196Z,16.17
2022-12-06T18:58:30.733Z,9.10
2022-12-06T19:01:19.305Z,8.23
2022-12-06T19:04:07.579Z,6.67
2022-12-06T19:06:54.218Z,7.87
2022-12-06T19:09:40.456Z,9.00
2022-12-06T19:12:26.750Z,7.73
2022-12-06T19:15:14.776Z,8.10
2022-12-06T19:18:01.191Z,8.07
2022-12-06T19:20:47.524Z,6.83
2022-12-06T19:23:33.652Z,7.00
2022-12-06T19:26:20.105Z,8.87
2022-12-06T19:29:06.368Z,8.80
2022-12-06T19:31:54.303Z,8.67
2022-12-06T19:34:40.653Z,8.37
2022-12-06T19:37:27.709Z,7.63
2022-12-06T19:40:14.823Z,10.40
2022-12-06T19:43:18.535Z,9.97
2022-12-06T19:46:12.631Z,8.40
2022-12-06T19:49:05.287Z,9.03
2022-12-06T19:51:53.043Z,8.07
2022-12-06T19:54:40.187Z,8.73
2022-12-06T19:57:26.283Z,8.90
2022-12-06T20:00:18.288Z,8.27
2022-12-06T20:03:07.672Z,8.30
2022-12-06T20:06:02.942Z,8.90
2022-12-06T20:08:51.540Z,7.63
2022-12-06T20:11:57.064Z,7.57
2022-12-06T20:14:45.495Z,9.50
2022-12-06T20:17:32.007Z,8.57
2022-12-06T20:20:18.512Z,10.03
2022-12-06T20:23:10.514Z,11.90
2022-12-06T20:25:58.096Z,8.00
2022-12-06T20:28:45.521Z,8.57
2022-12-06T20:31:32.404Z,8.43
2022-12-06T20:34:19.862Z,8.37
2022-12-06T20:37:07.630Z,8.10
2022-12-06T20:39:55.586Z,9.40
2022-12-06T20:42:41.771Z,9.50
2022-12-06T20:45:28.116Z,9.83
2022-12-06T20:48:14.752Z,9.67
2022-12-06T20:51:01.204Z,10.10
2022-12-06T20:53:48.497Z,9.53
2022-12-06T20:56:39.040Z,11.23
2022-12-06T20:59:25.579Z,11.17
2022-12-06T21:02:13.448Z,10.10
2022-12-06T21:05:00.118Z,9.93
2022-12-06T21:07:46.753Z,10.17
2022-12-06T21:10:38.585Z,10.17
2022-12-06T21:13:33.145Z,11.80
2022-12-06T21:16:21.599Z,11.80
2022-12-06T21:19:09.548Z,11.17
2022-12-06T21:21:59.386Z,11.03
2022-12-06T21:24:45.902Z,11.63
2022-12-06T21:27:32.115Z,13.83
2022-12-06T21:30:20.071Z,11.43
2022-12-06T21:33:06.258Z,9.87
2022-12-06T21:35:53.423Z,10.97
2022-12-06T21:38:39.707Z,10.23
2022-12-06T21:41:26.943Z,8.47
2022-12-06T21:44:13.375Z,9.67
2022-12-06T21:47:01.281Z,8.53
2022-12-06T21:49:48.019Z,8.80
2022-12-06T21:52:34.344Z,8.43
2022-12-06T21:55:20.593Z,8.07
2022-12-06T21:58:07.203Z,6.93
2022-12-06T22:00:53.588Z,7.90
2022-12-06T22:03:41.472Z,10.40
2022-12-06T22:06:28.231Z,7.07
2022-12-06T22:09:14.962Z,6.93
2022-12-06T22:12:01.645Z,6.27
2022-12-06T22:14:48.480Z,5.80
2022-12-06T22:17:35.004Z,6.83
2022-12-06T22:20:22.519Z,6.53
2022-12-06T22:23:09.022Z,7.07
2022-12-06T22:25:55.652Z,6.60
2022-12-06T22:28:42.361Z,7.67
2022-12-06T22:31:33.053Z,6.63
2022-12-06T22:34:19.527Z,6.87
2022-12-06T22:37:07.396Z,7.57
2022-12-06T22:39:53.591Z,7.80
2022-12-06T22:42:40.200Z,6.67
2022-12-06T22:45:26.759Z,7.10
2022-12-06T22:48:13.345Z,6.00
2022-12-06T22:51:08.937Z,12.90
2022-12-06T22:53:59.074Z,10.43
2022-12-06T22:56:48.623Z,6.33
2022-12-06T22:59:35.098Z,6.73
2022-12-06T23:02:21.365Z,6.17
2022-12-06T23:05:08.364Z,6.70
2022-12-06T23:07:56.883Z,7.27
2022-12-06T23:10:44.843Z,6.93
2022-12-06T23:13:32.406Z,6.43
2022-12-06T23:16:21.102Z,6.40
2022-12-06T23:19:07.439Z,6.80
2022-12-06T23:21:54.622Z,6.03
2022-12-06T23:24:40.867Z,8.83
2022-12-06T23:27:28.443Z,9.50
2022-12-06T23:30:14.906Z,12.17
2022-12-06T23:33:01.155Z,10.10
2022-12-06T23:35:47.681Z,8.10
2022-12-06T23:38:34.802Z,8.07
2022-12-06T23:41:23.225Z,7.70
2022-12-06T23:44:12.643Z,7.37
2022-12-06T23:46:59.138Z,7.47
2022-12-06T23:49:45.726Z,9.40
2022-12-06T23:52:31.868Z,9.73
2022-12-06T23:55:18.428Z,7.73
2022-12-06T23:58:04.829Z,8.50
